sensor_id;sensor_type;location;lat;lon;timestamp;pressure;altitude;pressure_sealevel;temperature;humidity
7105;BME280;3594;42.152;24.714;2024-01-15T00:01:11;-15931.00;;;-2.79;100.00
7105;BME280;3594;42.152;24.714;2024-01-15T00:03:37;-15611.84;;;-3.23;100.00
7105;BME280;3594;42.152;24.714;2024-01-15T00:06:02;-15615.19;;;-3.00;100.00
7105;BME280;3594;42.152;24.714;2024-01-15T00:08:28;-15608.78;;;-3.43;100.00
7105;BME280;3594;42.152;24.714;2024-01-15T00:10:53;-15925.16;;;-3.16;100.00
7105;BME280;3594;42.152;24.714;2024-01-15T00:13:19;-15605.88;;;-3.62;100.00
7105;BME280;3594;42.152;24.714;2024-01-15T00:15:44;-15605.19;;;-3.67;100.00
7105;BME280;3594;42.152;24.714;2024-01-15T00:18:09;-15604.50;;;-3.71;100.00
7105;BME280;3594;42.152;24.714;2024-01-15T00:20:35;-15610.09;;;-3.34;100.00
7105;BME280;3594;42.152;24.714;2024-01-15T00:23:00;-15916.94;;;-3.69;100.00
7105;BME280;3594;42.152;24.714;2024-01-15T00:25:26;-15920.09;;;-3.48;100.00
7105;BME280;3594;42.152;24.714;2024-01-15T00:27:51;-15914.88;;;-3.82;100.00
7105;BME280;3594;42.152;24.714;2024-01-15T00:30:17;-15914.41;;;-3.85;100.00
7105;BME280;3594;42.152;24.714;2024-01-15T00:32:42;-15917.72;;;-3.64;100.00
7105;BME280;3594;42.152;24.714;2024-01-15T00:35:08;-16226.09;;;-3.86;100.00
7105;BME280;3594;42.152;24.714;2024-01-15T00:37:33;-16227.31;;;-3.79;100.00
7105;BME280;3594;42.152;24.714;2024-01-15T00:39:58;-16225.53;;;-3.90;100.00
7105;BME280;3594;42.152;24.714;2024-01-15T00:42:24;-16544.16;;;-3.49;100.00
7105;BME280;3594;42.152;24.714;2024-01-15T00:44:49;-16544.34;;;-3.48;100.00
7105;BME280;3594;42.152;24.714;2024-01-15T00:47:14;-16539.34;;;-3.78;100.00
7105;BME280;3594;42.152;24.714;2024-01-15T00:49:40;-16544.84;;;-3.45;100.00
7105;BME280;3594;42.152;24.714;2024-01-15T00:52:05;-16541.28;;;-3.67;100.00
7105;BME280;3594;42.152;24.714;2024-01-15T00:54:31;-16544.91;;;-3.45;100.00
7105;BME280;3594;42.152;24.714;2024-01-15T00:56:56;-16856.41;;;-3.48;100.00
7105;BME280;3594;42.152;24.714;2024-01-15T00:59:21;-16539.09;;;-3.80;100.00
7105;BME280;3594;42.152;24.714;2024-01-15T01:01:47;-16538.00;;;-3.86;100.00
7105;BME280;3594;42.152;24.714;2024-01-15T01:04:13;-16536.75;;;-3.94;100.00
7105;BME280;3594;42.152;24.714;2024-01-15T01:06:39;-16536.75;;;-3.94;100.00
7105;BME280;3594;42.152;24.714;2024-01-15T01:09:05;-16541.28;;;-3.67;100.00
7105;BME280;3594;42.152;24.714;2024-01-15T01:11:30;-16537.25;;;-3.91;100.00
7105;BME280;3594;42.152;24.714;2024-01-15T01:13:56;-16538.84;;;-3.81;100.00
7105;BME280;3594;42.152;24.714;2024-01-15T01:16:22;-16534.53;;;-4.07;100.00
7105;BME280;3594;42.152;24.714;2024-01-15T01:18:47;-16542.31;;;-3.61;100.00
7105;BME280;3594;42.152;24.714;2024-01-15T01:21:13;-16855.19;;;-3.56;100.00
7105;BME280;3594;42.152;24.714;2024-01-15T01:23:38;-16855.88;;;-3.51;100.00
7105;BME280;3594;42.152;24.714;2024-01-15T01:26:03;-17166.47;;;-3.60;100.00
7105;BME280;3594;42.152;24.714;2024-01-15T01:28:29;-16853.78;;;-3.64;100.00
7105;BME280;3594;42.152;24.714;2024-01-15T01:30:54;-16538.75;;;-3.82;100.00
7105;BME280;3594;42.152;24.714;2024-01-15T01:33:20;-16531.75;;;-4.24;100.00
7105;BME280;3594;42.152;24.714;2024-01-15T01:35:46;-16223.72;;;-4.01;100.00
7105;BME280;3594;42.152;24.714;2024-01-15T01:38:12;-16218.00;;;-4.36;100.00
7105;BME280;3594;42.152;24.714;2024-01-15T01:40:38;-16217.25;;;-4.41;100.00
7105;BME280;3594;42.152;24.714;2024-01-15T01:43:05;-16222.41;;;-4.09;100.00
7105;BME280;3594;42.152;24.714;2024-01-15T01:45:30;-15904.25;;;-4.50;100.00
7105;BME280;3594;42.152;24.714;2024-01-15T01:47:56;-15592.28;;;-4.52;100.00
7105;BME280;3594;42.152;24.714;2024-01-15T01:50:21;-15903.38;;;-4.55;100.00
7105;BME280;3594;42.152;24.714;2024-01-15T01:52:48;-15903.94;;;-4.52;100.00
7105;BME280;3594;42.152;24.714;2024-01-15T01:55:13;-16216.75;;;-4.44;100.00
7105;BME280;3594;42.152;24.714;2024-01-15T01:57:40;-16525.25;;;-4.63;100.00
7105;BME280;3594;42.152;24.714;2024-01-15T02:00:07;-16523.38;;;-4.74;100.00
7105;BME280;3594;42.152;24.714;2024-01-15T02:02:33;-17145.78;;;-4.76;100.00
7105;BME280;3594;42.152;24.714;2024-01-15T02:04:59;-17463.22;;;-4.43;100.00
7105;BME280;3594;42.152;24.714;2024-01-15T02:07:24;-17146.47;;;-4.72;100.00
7105;BME280;3594;42.152;24.714;2024-01-15T02:09:50;-17464.88;;;-4.34;100.00
7105;BME280;3594;42.152;24.714;2024-01-15T02:12:15;-17152.75;;;-4.37;100.00
7105;BME280;3594;42.152;24.714;2024-01-15T02:14:41;-17152.22;;;-4.40;100.00
7105;BME280;3594;42.152;24.714;2024-01-15T02:17:06;-17144.41;;;-4.84;100.00
7105;BME280;3594;42.152;24.714;2024-01-15T02:19:32;-16842.13;;;-4.31;100.00
7105;BME280;3594;42.152;24.714;2024-01-15T02:21:57;-16837.34;;;-4.59;100.00
7105;BME280;3594;42.152;24.714;2024-01-15T02:24:22;-16836.56;;;-4.64;100.00
7105;BME280;3594;42.152;24.714;2024-01-15T02:26:48;-16836.13;;;-4.66;100.00
7105;BME280;3594;42.152;24.714;2024-01-15T02:29:14;-16839.78;;;-4.45;100.00
7105;BME280;3594;42.152;24.714;2024-01-15T02:31:40;-16525.59;;;-4.61;100.00
7105;BME280;3594;42.152;24.714;2024-01-15T02:34:05;-15588.16;;;-4.79;100.00
7105;BME280;3594;42.152;24.714;2024-01-15T02:36:31;-15593.06;;;-4.47;100.00
7105;BME280;3594;42.152;24.714;2024-01-15T02:38:57;-15588.84;;;-4.74;100.00
7105;BME280;3594;42.152;24.714;2024-01-15T02:41:22;-15898.22;;;-4.88;100.00
7105;BME280;3594;42.152;24.714;2024-01-15T02:43:48;-15902.59;;;-4.60;100.00
7105;BME280;3594;42.152;24.714;2024-01-15T02:46:13;-15901.88;;;-4.65;100.00
7105;BME280;3594;42.152;24.714;2024-01-15T02:48:39;-15900.69;;;-4.72;100.00
7105;BME280;3594;42.152;24.714;2024-01-15T02:51:04;-15899.56;;;-4.79;100.00
7105;BME280;3594;42.152;24.714;2024-01-15T02:53:29;-15900.44;;;-4.74;100.00
7105;BME280;3594;42.152;24.714;2024-01-15T02:55:55;-15895.66;;;-5.04;100.00
7105;BME280;3594;42.152;24.714;2024-01-15T02:58:21;-15899.56;;;-4.79;100.00
7105;BME280;3594;42.152;24.714;2024-01-15T03:00:46;-16211.44;;;-4.77;100.00
7105;BME280;3594;42.152;24.714;2024-01-15T03:03:12;-16522.88;;;-4.77;100.00
7105;BME280;3594;42.152;24.714;2024-01-15T03:05:37;-16210.44;;;-4.83;100.00
7105;BME280;3594;42.152;24.714;2024-01-15T03:08:03;-15899.16;;;-4.82;100.00
7105;BME280;3594;42.152;24.714;2024-01-15T03:10:29;-15903.22;;;-4.56;100.00
7105;BME280;3594;42.152;24.714;2024-01-15T03:12:54;-15902.25;;;-4.62;100.00
7105;BME280;3594;42.152;24.714;2024-01-15T03:15:19;-15901.56;;;-4.67;100.00
7105;BME280;3594;42.152;24.714;2024-01-15T03:17:45;-16207.00;;;-5.04;100.00
7105;BME280;3594;42.152;24.714;2024-01-15T03:20:11;-16206.59;;;-5.07;100.00
7105;BME280;3594;42.152;24.714;2024-01-15T03:22:36;-16206.69;;;-5.06;100.00
7105;BME280;3594;42.152;24.714;2024-01-15T03:25:02;-16523.63;;;-4.72;100.00
7105;BME280;3594;42.152;24.714;2024-01-15T03:27:28;-16208.16;;;-4.97;100.00
7105;BME280;3594;42.152;24.714;2024-01-15T03:29:53;-16206.50;;;-5.07;100.00
7105;BME280;3594;42.152;24.714;2024-01-15T03:32:19;-16207.81;;;-4.99;100.00
7105;BME280;3594;42.152;24.714;2024-01-15T03:34:44;-16523.47;;;-4.73;100.00
7105;BME280;3594;42.152;24.714;2024-01-15T03:37:11;-16203.56;;;-5.25;100.00
7105;BME280;3594;42.152;24.714;2024-01-15T03:39:36;-16524.22;;;-4.69;100.00
7105;BME280;3594;42.152;24.714;2024-01-15T03:42:02;-16525.34;;;-4.62;100.00
7105;BME280;3594;42.152;24.714;2024-01-15T03:44:27;-15902.50;;;-4.61;100.00
7105;BME280;3594;42.152;24.714;2024-01-15T03:46:52;-15901.56;;;-4.67;100.00
7105;BME280;3594;42.152;24.714;2024-01-15T03:49:18;-15898.06;;;-4.89;100.00
7105;BME280;3594;42.152;24.714;2024-01-15T03:51:44;-15897.97;;;-4.90;100.00
7105;BME280;3594;42.152;24.714;2024-01-15T03:54:10;-16210.19;;;-4.84;100.00
7105;BME280;3594;42.152;24.714;2024-01-15T03:56:35;-16207.25;;;-5.03;100.00
7105;BME280;3594;42.152;24.714;2024-01-15T03:59:00;-16523.31;;;-4.74;100.00
7105;BME280;3594;42.152;24.714;2024-01-15T04:01:26;-16519.84;;;-4.95;100.00
7105;BME280;3594;42.152;24.714;2024-01-15T04:03:51;-16519.66;;;-4.96;100.00
7105;BME280;3594;42.152;24.714;2024-01-15T04:06:17;-16207.75;;;-5.00;100.00
7105;BME280;3594;42.152;24.714;2024-01-15T04:08:42;-16520.50;;;-4.91;100.00
7105;BME280;3594;42.152;24.714;2024-01-15T04:11:07;-16210.53;;;-4.82;100.00
7105;BME280;3594;42.152;24.714;2024-01-15T04:13:33;-16209.13;;;-4.91;100.00
7105;BME280;3594;42.152;24.714;2024-01-15T04:15:59;-16213.72;;;-4.63;100.00
7105;BME280;3594;42.152;24.714;2024-01-15T04:18:25;-16213.06;;;-4.67;100.00
7105;BME280;3594;42.152;24.714;2024-01-15T04:20:51;-15895.59;;;-5.05;100.00
7105;BME280;3594;42.152;24.714;2024-01-15T04:23:16;-15587.47;;;-4.83;100.00
7105;BME280;3594;42.152;24.714;2024-01-15T04:25:41;-15587.69;;;-4.82;100.00
7105;BME280;3594;42.152;24.714;2024-01-15T04:28:08;-15898.63;;;-4.85;100.00
7105;BME280;3594;42.152;24.714;2024-01-15T04:30:34;-15895.59;;;-5.05;100.00
7105;BME280;3594;42.152;24.714;2024-01-15T04:32:59;-15894.97;;;-5.09;100.00
7105;BME280;3594;42.152;24.714;2024-01-15T04:35:24;-15891.31;;;-5.32;100.00
7105;BME280;3594;42.152;24.714;2024-01-15T04:37:50;-16203.38;;;-5.26;100.00
7105;BME280;3594;42.152;24.714;2024-01-15T04:40:15;-16207.50;;;-5.01;100.00
7105;BME280;3594;42.152;24.714;2024-01-15T04:42:41;-16205.84;;;-5.11;100.00
7105;BME280;3594;42.152;24.714;2024-01-15T04:45:06;-16518.06;;;-5.06;100.00
7105;BME280;3594;42.152;24.714;2024-01-15T04:47:32;-16518.56;;;-5.03;100.00
7105;BME280;3594;42.152;24.714;2024-01-15T04:49:57;-16208.66;;;-4.94;100.00
7105;BME280;3594;42.152;24.714;2024-01-15T04:52:22;-15897.09;;;-4.95;100.00
7105;BME280;3594;42.152;24.714;2024-01-15T04:54:48;-16208.31;;;-4.96;100.00
7105;BME280;3594;42.152;24.714;2024-01-15T04:57:15;-16200.94;;;-5.42;100.00
7105;BME280;3594;42.152;24.714;2024-01-15T04:59:40;-15893.44;;;-5.18;100.00
7105;BME280;3594;42.152;24.714;2024-01-15T05:02:06;-16207.81;;;-4.99;100.00
7105;BME280;3594;42.152;24.714;2024-01-15T05:04:32;-16206.59;;;-5.07;100.00
7105;BME280;3594;42.152;24.714;2024-01-15T05:06:58;-16203.56;;;-5.25;100.00
7105;BME280;3594;42.152;24.714;2024-01-15T05:09:23;-15894.25;;;-5.13;100.00
7105;BME280;3594;42.152;24.714;2024-01-15T05:11:49;-16199.94;;;-5.48;100.00
7105;BME280;3594;42.152;24.714;2024-01-15T05:14:14;-16202.72;;;-5.30;100.00
7105;BME280;3594;42.152;24.714;2024-01-15T05:16:44;-16204.72;;;-5.18;100.00
7105;BME280;3594;42.152;24.714;2024-01-15T05:19:11;-16511.03;;;-5.48;100.00
7105;BME280;3594;42.152;24.714;2024-01-15T05:21:37;-16518.31;;;-5.04;100.00
7105;BME280;3594;42.152;24.714;2024-01-15T05:24:02;-16830.09;;;-5.01;100.00
7105;BME280;3594;42.152;24.714;2024-01-15T05:26:27;-16828.78;;;-5.09;100.00
7105;BME280;3594;42.152;24.714;2024-01-15T05:28:53;-16521.69;;;-4.84;100.00
7105;BME280;3594;42.152;24.714;2024-01-15T05:31:18;-16206.50;;;-5.07;100.00
7105;BME280;3594;42.152;24.714;2024-01-15T05:33:44;-15898.44;;;-4.86;100.00
7105;BME280;3594;42.152;24.714;2024-01-15T05:36:09;-15901.06;;;-4.70;100.00
7105;BME280;3594;42.152;24.714;2024-01-15T05:38:34;-15589.53;;;-4.70;100.00
7105;BME280;3594;42.152;24.714;2024-01-15T05:41:00;-14960.91;;;-5.08;100.00
7105;BME280;3594;42.152;24.714;2024-01-15T05:43:25;-15275.88;;;-4.84;100.00
7105;BME280;3594;42.152;24.714;2024-01-15T05:45:51;-14961.72;;;-5.03;100.00
7105;BME280;3594;42.152;24.714;2024-01-15T05:48:16;-14960.28;;;-5.13;100.00
7105;BME280;3594;42.152;24.714;2024-01-15T05:50:41;-14651.41;;;-4.94;100.00
7105;BME280;3594;42.152;24.714;2024-01-15T05:53:07;-14339.88;;;-4.94;100.00
7105;BME280;3594;42.152;24.714;2024-01-15T05:55:32;-14338.34;;;-5.06;100.00
7105;BME280;3594;42.152;24.714;2024-01-15T05:57:58;-14339.81;;;-4.95;100.00
7105;BME280;3594;42.152;24.714;2024-01-15T06:00:23;-14335.56;;;-5.27;100.00
7105;BME280;3594;42.152;24.714;2024-01-15T06:02:48;-14024.94;;;-5.21;100.00
7105;BME280;3594;42.152;24.714;2024-01-15T06:05:14;-14021.66;;;-5.47;100.00
7105;BME280;3594;42.152;24.714;2024-01-15T06:07:39;-14025.56;;;-5.16;100.00
7105;BME280;3594;42.152;24.714;2024-01-15T06:10:05;-14023.47;;;-5.32;100.00
7105;BME280;3594;42.152;24.714;2024-01-15T06:12:31;-14027.88;;;-4.98;100.00
7105;BME280;3594;42.152;24.714;2024-01-15T06:14:57;-13712.97;;;-5.25;100.00
7105;BME280;3594;42.152;24.714;2024-01-15T06:17:23;-14027.69;;;-4.99;100.00
7105;BME280;3594;42.152;24.714;2024-01-15T06:19:48;-14335.44;;;-5.28;100.00
7105;BME280;3594;42.152;24.714;2024-01-15T06:22:13;-14336.28;;;-5.21;100.00
7105;BME280;3594;42.152;24.714;2024-01-15T06:24:39;-14336.97;;;-5.16;100.00
7105;BME280;3594;42.152;24.714;2024-01-15T06:27:04;-14648.88;;;-5.13;100.00
7105;BME280;3594;42.152;24.714;2024-01-15T06:29:31;-14651.28;;;-4.95;100.00
7105;BME280;3594;42.152;24.714;2024-01-15T06:31:57;-14654.03;;;-4.75;100.00
7105;BME280;3594;42.152;24.714;2024-01-15T06:34:22;-14342.81;;;-4.72;100.00
7105;BME280;3594;42.152;24.714;2024-01-15T06:36:47;-14343.53;;;-4.66;100.00
7105;BME280;3594;42.152;24.714;2024-01-15T06:39:13;-14340.16;;;-4.92;100.00
7105;BME280;3594;42.152;24.714;2024-01-15T06:41:38;-14029.22;;;-4.87;100.00
7105;BME280;3594;42.152;24.714;2024-01-15T06:44:09;-14029.84;;;-4.82;100.00
7105;BME280;3594;42.152;24.714;2024-01-15T06:46:35;-14030.50;;;-4.77;100.00
7105;BME280;3594;42.152;24.714;2024-01-15T06:49:01;-13722.31;;;-4.48;100.00
7105;BME280;3594;42.152;24.714;2024-01-15T06:51:26;-14029.97;;;-4.81;100.00
7105;BME280;3594;42.152;24.714;2024-01-15T06:53:52;-14030.94;;;-4.73;100.00
7105;BME280;3594;42.152;24.714;2024-01-15T06:56:17;-14034.66;;;-4.44;100.00
7105;BME280;3594;42.152;24.714;2024-01-15T06:58:42;-14037.00;;;-4.25;100.00
7105;BME280;3594;42.152;24.714;2024-01-15T07:01:08;-14348.72;;;-4.27;100.00
7105;BME280;3594;42.152;24.714;2024-01-15T07:03:33;-14034.38;;;-4.46;100.00
7105;BME280;3594;42.152;24.714;2024-01-15T07:05:59;-14039.41;;;-4.06;100.00
7105;BME280;3594;42.152;24.714;2024-01-15T07:08:24;-13727.94;;;-4.02;100.00
7105;BME280;3594;42.152;24.714;2024-01-15T07:10:49;-13414.38;;;-4.14;100.00
7105;BME280;3594;42.152;24.714;2024-01-15T07:13:15;-13417.34;;;-3.88;100.00
7105;BME280;3594;42.152;24.714;2024-01-15T07:15:40;-13413.59;;;-4.21;100.00
7105;BME280;3594;42.152;24.714;2024-01-15T07:18:06;-13730.44;;;-3.81;100.00
7105;BME280;3594;42.152;24.714;2024-01-15T07:20:31;-14039.16;;;-4.08;100.00
7105;BME280;3594;42.152;24.714;2024-01-15T07:22:57;-14041.34;;;-3.91;100.00
7105;BME280;3594;42.152;24.714;2024-01-15T07:25:22;-14044.84;;;-3.63;100.00
7105;BME280;3594;42.152;24.714;2024-01-15T07:27:47;-13733.47;;;-3.56;100.00
7105;BME280;3594;42.152;24.714;2024-01-15T07:30:13;-12797.97;;;-3.40;100.00
7105;BME280;3594;42.152;24.714;2024-01-15T07:32:39;-12483.16;;;-3.64;100.00
7105;BME280;3594;42.152;24.714;2024-01-15T07:35:06;-12798.63;;;-3.34;100.00
7105;BME280;3594;42.152;24.714;2024-01-15T07:37:31;-12802.53;;;-2.97;100.00
7105;BME280;3594;42.152;24.714;2024-01-15T07:39:57;-11867.06;;;-2.65;100.00
7105;BME280;3594;42.152;24.714;2024-01-15T07:42:22;-8423.13;;;-2.51;100.00
7105;BME280;3594;42.152;24.714;2024-01-15T07:44:47;-9676.63;;;-2.46;100.00
7105;BME280;3594;42.152;24.714;2024-01-15T07:47:13;-8424.28;;;-2.15;100.00
7105;BME280;3594;42.152;24.714;2024-01-15T07:49:38;-7797.84;;;-1.83;100.00
7105;BME280;3594;42.152;24.714;2024-01-15T07:52:04;-6542.44;;;-2.13;100.00
7105;BME280;3594;42.152;24.714;2024-01-15T07:54:32;-6856.41;;;-1.75;100.00
7105;BME280;3594;42.152;24.714;2024-01-15T07:57:02;-7170.09;;;-1.93;100.00
7105;BME280;3594;42.152;24.714;2024-01-15T07:59:31;-2772.25;;;-1.63;100.00
7105;BME280;3594;42.152;24.714;2024-01-15T08:01:59;-4027.94;;;-1.24;100.00
7105;BME280;3594;42.152;24.714;2024-01-15T08:04:24;-4656.22;;;-1.07;100.00
7105;BME280;3594;42.152;24.714;2024-01-15T08:06:50;-4971.16;;;-1.25;100.00
7105;BME280;3594;42.152;24.714;2024-01-15T08:09:15;-6228.13;;;-0.84;100.00
7105;BME280;3594;42.152;24.714;2024-01-15T08:11:41;-2767.16;;;-0.79;100.00
7105;BME280;3594;42.152;24.714;2024-01-15T08:14:07;-876.16;;;-0.62;100.00
7105;BME280;3594;42.152;24.714;2024-01-15T08:16:33;-1821.81;;;-0.69;100.00
7105;BME280;3594;42.152;24.714;2024-01-15T08:18:58;-1818.09;;;-0.21;100.00
7105;BME280;3594;42.152;24.714;2024-01-15T08:21:24;2915.28;;;-0.08;100.00
7105;BME280;3594;42.152;24.714;2024-01-15T08:23:49;2913.47;;;-0.19;100.00
7105;BME280;3594;42.152;24.714;2024-01-15T08:26:14;1964.53;;;-0.34;100.00
7105;BME280;3594;42.152;24.714;2024-01-15T08:28:40;394.53;;;0.28;100.00
7105;BME280;3594;42.152;24.714;2024-01-15T08:31:05;3867.84;;;0.23;100.00
7105;BME280;3594;42.152;24.714;2024-01-15T08:33:31;7029.88;;;0.27;100.00
7105;BME280;3594;42.152;24.714;2024-01-15T08:35:56;5458.47;;;0.76;100.00
7105;BME280;3594;42.152;24.714;2024-01-15T08:38:21;7672.91;;;0.71;100.00
7105;BME280;3594;42.152;24.714;2024-01-15T08:40:48;7676.34;;;0.86;100.00
7105;BME280;3594;42.152;24.714;2024-01-15T08:43:14;11154.84;;;0.63;100.00
7105;BME280;3594;42.152;24.714;2024-01-15T08:45:39;13387.16;;;1.04;100.00
7105;BME280;3594;42.152;24.714;2024-01-15T08:48:05;15616.97;;;1.26;100.00
7105;BME280;3594;42.152;24.714;2024-01-15T08:50:32;21015.38;;;1.13;100.00
7105;BME280;3594;42.152;24.714;2024-01-15T08:52:58;28989.75;;;1.35;100.00
7105;BME280;3594;42.152;24.714;2024-01-15T08:55:24;35391.88;;;1.59;100.00
7105;BME280;3594;42.152;24.714;2024-01-15T08:57:50;34420.94;;;1.42;100.00
7105;BME280;3594;42.152;24.714;2024-01-15T09:00:16;35698.53;;;1.41;100.00
7105;BME280;3594;42.152;24.714;2024-01-15T09:02:43;33775.91;;;1.32;100.00
7105;BME280;3594;42.152;24.714;2024-01-15T09:05:09;26420.88;;;1.02;100.00
7105;BME280;3594;42.152;24.714;2024-01-15T09:07:34;25156.22;;;1.19;100.00
7105;BME280;3594;42.152;24.714;2024-01-15T09:10:00;24847.41;;;1.38;100.00
7105;BME280;3594;42.152;24.714;2024-01-15T09:12:26;28361.50;;;1.52;100.00
7105;BME280;3594;42.152;24.714;2024-01-15T09:14:51;28060.44;;;1.83;100.00
7105;BME280;3594;42.152;24.714;2024-01-15T09:17:20;31894.34;;;1.87;100.00
7105;BME280;3594;42.152;24.714;2024-01-15T09:19:47;32531.81;;;1.84;100.00
7105;BME280;3594;42.152;24.714;2024-01-15T09:22:13;36056.94;;;1.96;100.00
7105;BME280;3594;42.152;24.714;2024-01-15T09:24:40;40618.72;;;2.01;100.00
7105;BME280;3594;42.152;24.714;2024-01-15T09:27:07;37321.97;;;1.75;100.00
7105;BME280;3594;42.152;24.714;2024-01-15T09:29:32;35097.22;;;1.96;100.00
7105;BME280;3594;42.152;24.714;2024-01-15T09:31:57;33503.00;;;2.03;100.00
7105;BME280;3594;42.152;24.714;2024-01-15T09:34:23;30299.66;;;1.91;100.00
7105;BME280;3594;42.152;24.714;2024-01-15T09:36:49;32243.03;;;2.32;100.00
7105;BME280;3594;42.152;24.714;2024-01-15T09:39:14;36719.69;;;2.28;100.00
7105;BME280;3594;42.152;24.714;2024-01-15T09:41:41;41651.28;;;2.65;100.00
7105;BME280;3594;42.152;24.714;2024-01-15T09:44:07;39814.84;;;2.37;100.00
7105;BME280;3594;42.152;24.714;2024-01-15T09:46:34;36436.13;;;2.79;100.00
7105;BME280;3594;42.152;24.714;2024-01-15T09:49:00;37067.59;;;2.66;100.00
7105;BME280;3594;42.152;24.714;2024-01-15T09:51:28;41837.69;;;2.63;100.00
7105;BME280;3594;42.152;24.714;2024-01-15T09:53:57;46667.72;;;2.85;100.00
7105;BME280;3594;42.152;24.714;2024-01-15T09:56:23;51270.94;;;2.55;100.00
7105;BME280;3594;42.152;24.714;2024-01-15T09:58:50;51950.69;;;2.54;100.00
7105;BME280;3594;42.152;24.714;2024-01-15T10:01:20;50157.28;;;2.63;100.00
7105;BME280;3594;42.152;24.714;2024-01-15T10:03:46;50027.44;;;2.75;100.00
7105;BME280;3594;42.152;24.714;2024-01-15T10:06:15;50090.50;;;2.88;100.00
7105;BME280;3594;42.152;24.714;2024-01-15T10:08:48;52715.75;;;3.06;100.00
7105;BME280;3594;42.152;24.714;2024-01-15T10:11:14;52976.38;;;3.18;100.00
7105;BME280;3594;42.152;24.714;2024-01-15T10:13:40;53611.31;;;3.23;100.00
7105;BME280;3594;42.152;24.714;2024-01-15T10:16:06;55948.97;;;3.28;100.00
7105;BME280;3594;42.152;24.714;2024-01-15T10:18:32;56264.69;;;2.88;100.00
7105;BME280;3594;42.152;24.714;2024-01-15T10:20:58;56084.81;;;3.23;100.00
7105;BME280;3594;42.152;24.714;2024-01-15T10:23:24;55422.25;;;3.26;100.00
7105;BME280;3594;42.152;24.714;2024-01-15T10:25:49;55940.41;;;3.42;100.00
7105;BME280;3594;42.152;24.714;2024-01-15T10:28:16;56060.47;;;3.19;100.00
7105;BME280;3594;42.152;24.714;2024-01-15T10:30:41;56069.09;;;3.71;100.00
7105;BME280;3594;42.152;24.714;2024-01-15T10:33:07;56109.78;;;3.42;100.00
7105;BME280;3594;42.152;24.714;2024-01-15T10:35:33;55576.38;;;3.87;100.00
7105;BME280;3594;42.152;24.714;2024-01-15T10:38:02;56022.09;;;4.09;100.00
7105;BME280;3594;42.152;24.714;2024-01-15T10:40:28;56668.06;;;4.18;100.00
7105;BME280;3594;42.152;24.714;2024-01-15T10:42:54;57409.88;;;4.20;100.00
7105;BME280;3594;42.152;24.714;2024-01-15T10:45:20;57519.38;;;4.35;100.00
7105;BME280;3594;42.152;24.714;2024-01-15T10:47:46;58117.78;;;4.47;100.00
7105;BME280;3594;42.152;24.714;2024-01-15T10:50:12;58633.00;;;4.89;100.00
7105;BME280;3594;42.152;24.714;2024-01-15T10:52:39;59072.53;;;5.07;100.00
7105;BME280;3594;42.152;24.714;2024-01-15T10:55:07;59767.00;;;5.36;100.00
7105;BME280;3594;42.152;24.714;2024-01-15T10:57:34;59819.91;;;5.33;100.00
7105;BME280;3594;42.152;24.714;2024-01-15T11:00:00;59956.06;;;5.54;100.00
7105;BME280;3594;42.152;24.714;2024-01-15T11:02:28;59910.28;;;5.47;100.00
7105;BME280;3594;42.152;24.714;2024-01-15T11:04:54;60033.72;;;5.81;100.00
7105;BME280;3594;42.152;24.714;2024-01-15T11:07:21;60046.97;;;5.51;100.00
7105;BME280;3594;42.152;24.714;2024-01-15T11:09:47;60101.84;;;5.78;100.00
7105;BME280;3594;42.152;24.714;2024-01-15T11:12:13;60084.72;;;5.49;100.00
7105;BME280;3594;42.152;24.714;2024-01-15T11:14:44;60187.31;;;5.57;100.00
7105;BME280;3594;42.152;24.714;2024-01-15T11:17:11;60194.25;;;5.70;100.00
7105;BME280;3594;42.152;24.714;2024-01-15T11:19:42;60114.06;;;5.39;100.00
7105;BME280;3594;42.152;24.714;2024-01-15T11:22:09;60183.69;;;5.90;100.00
7105;BME280;3594;42.152;24.714;2024-01-15T11:24:39;60219.53;;;5.74;100.00
7105;BME280;3594;42.152;24.714;2024-01-15T11:27:06;60292.03;;;5.94;99.83
7105;BME280;3594;42.152;24.714;2024-01-15T11:29:36;60350.56;;;5.97;96.72
7105;BME280;3594;42.152;24.714;2024-01-15T11:32:03;60362.75;;;6.31;94.36
7105;BME280;3594;42.152;24.714;2024-01-15T11:37:17;60359.28;;;6.02;97.33
7105;BME280;3594;42.152;24.714;2024-01-15T11:39:43;60334.75;;;5.62;99.97
7105;BME280;3594;42.152;24.714;2024-01-15T11:42:10;60237.94;;;5.22;100.00
7105;BME280;3594;42.152;24.714;2024-01-15T11:44:39;60274.09;;;5.83;99.41
7105;BME280;3594;42.152;24.714;2024-01-15T11:47:09;60323.50;;;6.04;97.75
7105;BME280;3594;42.152;24.714;2024-01-15T11:50:02;60448.59;;;5.94;97.67
7105;BME280;3594;42.152;24.714;2024-01-15T11:52:38;60300.47;;;5.54;98.20
7105;BME280;3594;42.152;24.714;2024-01-15T12:00:14;60307.47;;;6.01;96.13
7105;BME280;3594;42.152;24.714;2024-01-15T12:02:44;60287.75;;;5.63;95.56
7105;BME280;3594;42.152;24.714;2024-01-15T12:05:12;60284.06;;;5.23;96.50
7105;BME280;3594;42.152;24.714;2024-01-15T12:07:44;60232.34;;;5.17;98.22
7105;BME280;3594;42.152;24.714;2024-01-15T12:10:18;60331.28;;;5.29;98.30
7105;BME280;3594;42.152;24.714;2024-01-15T12:12:59;60284.38;;;5.60;96.53
7105;BME280;3594;42.152;24.714;2024-01-15T12:15:28;60321.09;;;5.38;96.52
7105;BME280;3594;42.152;24.714;2024-01-15T12:17:55;60334.03;;;5.41;95.61
7105;BME280;3594;42.152;24.714;2024-01-15T12:20:25;60291.31;;;5.34;96.48
7105;BME280;3594;42.152;24.714;2024-01-15T12:22:51;60507.66;;;5.26;96.47
7105;BME280;3594;42.152;24.714;2024-01-15T12:25:17;60294.81;;;5.10;98.63
7105;BME280;3594;42.152;24.714;2024-01-15T12:27:43;60256.81;;;4.71;100.00
7105;BME280;3594;42.152;24.714;2024-01-15T12:30:13;60217.63;;;4.40;100.00
7105;BME280;3594;42.152;24.714;2024-01-15T12:32:43;60314.75;;;4.59;100.00
7105;BME280;3594;42.152;24.714;2024-01-15T12:35:13;60181.69;;;4.39;100.00
7105;BME280;3594;42.152;24.714;2024-01-15T12:37:42;60114.28;;;4.42;100.00
7105;BME280;3594;42.152;24.714;2024-01-15T12:40:09;60114.09;;;4.26;100.00
7105;BME280;3594;42.152;24.714;2024-01-15T12:42:39;60147.69;;;4.43;100.00
7105;BME280;3594;42.152;24.714;2024-01-15T12:45:06;60242.47;;;4.74;100.00
7105;BME280;3594;42.152;24.714;2024-01-15T12:47:32;60282.63;;;4.80;100.00
7105;BME280;3594;42.152;24.714;2024-01-15T12:50:00;60147.91;;;4.55;100.00
7105;BME280;3594;42.152;24.714;2024-01-15T12:52:29;60143.44;;;4.51;100.00
7105;BME280;3594;42.152;24.714;2024-01-15T12:54:54;60069.69;;;4.32;100.00
7105;BME280;3594;42.152;24.714;2024-01-15T12:57:20;60078.72;;;4.65;100.00
7105;BME280;3594;42.152;24.714;2024-01-15T12:59:46;60133.78;;;4.65;100.00